Time;durP1;ratioP1;P1;durP2;ratioP2;P2;SDS_P1;SDS_P2;PMS_P1;PMS_P2;Temp;Humidity;BMP_temperature;BMP_pressure;BME280_temperature;BME280_humidity;BME280_pressure;Samples;Min_cycle;Max_cycle;Signal;HPM_P1;HPM_P2
2022/03/29 00:01:02;;;;;;;49.00;32.33;;;;;;;-146.64;100.00;118402.03;5013071;28;20025;-81
2022/03/29 00:03:27;;;;;;;54.40;34.63;;;;;;;-146.64;100.00;118402.03;4991611;28;20030;-81
2022/03/29 00:05:52;;;;;;;47.47;32.22;;;;;;;-146.64;100.00;118402.03;5006676;28;20026;-81
2022/03/29 00:08:18;;;;;;;56.08;34.53;;;;;;;-146.64;100.00;118402.03;5020278;28;20033;-81
2022/03/29 00:10:44;;;;;;;50.80;33.45;;;;;;;-146.64;100.00;118402.03;5015080;28;20522;-81
2022/03/29 00:13:10;;;;;;;56.05;34.05;;;;;;;-146.64;100.00;118402.03;5030825;28;20032;-80
2022/03/29 00:15:35;;;;;;;51.28;35.45;;;;;;;-146.64;100.00;118402.03;5004517;28;20452;-81
2022/03/29 00:18:00;;;;;;;54.00;33.38;;;;;;;-146.64;100.00;118402.03;5009401;28;20036;-79
2022/03/29 00:20:26;;;;;;;49.90;33.42;;;;;;;-146.64;100.00;118402.03;5037021;28;20154;-79
2022/03/29 00:22:51;;;;;;;51.17;33.55;;;;;;;-146.64;100.00;118402.03;5022812;28;20184;-79
2022/03/29 00:25:17;;;;;;;45.60;32.85;;;;;;;-146.64;100.00;118402.03;5002712;28;20030;-79
2022/03/29 00:27:43;;;;;;;58.22;36.58;;;;;;;-146.64;100.00;118402.03;5019391;28;20045;-79
2022/03/29 00:30:11;;;;;;;58.92;34.65;;;;;;;-146.64;100.00;118402.03;5001490;28;20038;-80
2022/03/29 00:32:38;;;;;;;56.08;36.75;;;;;;;-146.64;100.00;118402.03;5001775;28;20018;-80
2022/03/29 00:35:04;;;;;;;55.72;35.75;;;;;;;-146.64;100.00;118402.03;5002435;28;20026;-79
2022/03/29 00:37:29;;;;;;;57.45;35.25;;;;;;;-146.64;100.00;118402.03;5018769;28;20103;-79
2022/03/29 00:39:56;;;;;;;53.80;36.45;;;;;;;-146.64;100.00;118402.03;5002383;28;20165;-80
2022/03/29 00:42:22;;;;;;;60.80;36.30;;;;;;;-146.64;100.00;118402.03;5003631;28;20030;-79
2022/03/29 00:44:47;;;;;;;61.03;36.63;;;;;;;-146.64;100.00;118402.03;4991848;28;20101;-80
2022/03/29 00:47:13;;;;;;;57.30;36.47;;;;;;;-146.64;100.00;118402.03;5021299;28;20026;-79
2022/03/29 00:49:38;;;;;;;59.80;34.70;;;;;;;-146.64;100.00;118402.03;5007328;28;20028;-79
2022/03/29 00:52:04;;;;;;;58.15;36.47;;;;;;;-146.64;100.00;118402.03;5022936;28;20496;-80
2022/03/29 00:54:32;;;;;;;58.60;37.30;;;;;;;-146.64;100.00;118402.03;5019184;28;20017;-80
2022/03/29 00:56:58;;;;;;;58.65;35.45;;;;;;;-146.64;100.00;118402.03;5018208;28;20036;-80
2022/03/29 00:59:26;;;;;;;59.20;37.50;;;;;;;-146.64;100.00;118402.03;5002792;28;20030;-80
2022/03/29 01:01:53;;;;;;;54.70;36.42;;;;;;;-146.64;100.00;118402.03;5031308;28;20033;-79
2022/03/29 01:04:20;;;;;;;61.45;38.47;;;;;;;-146.64;100.00;118402.03;5022486;28;20033;-80
2022/03/29 01:06:45;;;;;;;;;;;;;;;-146.64;100.00;118402.03;5026253;28;20033;-80
2022/03/29 01:09:11;;;;;;;60.72;37.45;;;;;;;-146.64;100.00;118402.03;5024958;28;19942;-80
2022/03/29 01:11:38;;;;;;;61.53;37.08;;;;;;;-146.64;100.00;118402.03;5025448;28;20022;-79
2022/03/29 01:14:03;;;;;;;68.18;39.42;;;;;;;-146.64;100.00;118402.03;5007337;28;20072;-79
2022/03/29 01:19:16;;;;;;;59.23;38.80;;;;;;;-146.64;100.00;118402.03;5015363;28;20045;-79
2022/03/29 01:21:53;;;;;;;61.35;39.30;;;;;;;-146.64;100.00;118402.03;4990123;28;20496;-80
2022/03/29 01:24:19;;;;;;;60.55;38.22;;;;;;;-146.64;100.00;118402.03;5023935;28;20017;-80
2022/03/29 01:26:44;;;;;;;63.78;39.13;;;;;;;-146.64;100.00;118402.03;5008066;28;20060;-80
2022/03/29 01:29:10;;;;;;;70.68;39.78;;;;;;;-146.64;100.00;118402.03;5008791;28;20463;-79
2022/03/29 01:31:36;;;;;;;62.50;40.22;;;;;;;-146.64;100.00;118402.03;5017692;28;20037;-79
2022/03/29 01:34:01;;;;;;;71.05;40.10;;;;;;;-146.64;100.00;118402.03;5035896;28;20025;-79
2022/03/29 01:36:27;;;;;;;63.05;40.25;;;;;;;-146.64;100.00;118402.03;5010321;28;20029;-79
2022/03/29 01:38:53;;;;;;;68.65;41.45;;;;;;;-146.64;100.00;118402.03;5027606;28;20473;-80
2022/03/29 01:41:18;;;;;;;68.75;41.10;;;;;;;-146.64;100.00;118402.03;5030160;28;20052;-80
2022/03/29 01:43:43;;;;;;;62.85;40.63;;;;;;;-146.64;100.00;118402.03;5006783;28;20514;-80
2022/03/29 01:46:12;;;;;;;65.45;40.75;;;;;;;-146.64;100.00;118402.03;5021022;28;20082;-79
2022/03/29 01:48:37;;;;;;;60.72;38.15;;;;;;;-146.64;100.00;118402.03;5019371;28;20037;-80
2022/03/29 01:51:03;;;;;;;64.68;39.20;;;;;;;-146.64;100.00;118402.03;5005958;28;20038;-80
2022/03/29 01:53:28;;;;;;;59.22;36.42;;;;;;;-146.64;100.00;118402.03;5036082;28;20492;-79
2022/03/29 01:55:55;;;;;;;67.30;39.83;;;;;;;-146.64;100.00;118402.03;5005049;28;20092;-80
2022/03/29 01:58:23;;;;;;;60.03;38.28;;;;;;;-146.64;100.00;118402.03;5021724;28;20025;-79
2022/03/29 02:00:48;;;;;;;62.95;38.58;;;;;;;-146.64;100.00;118402.03;5018537;28;20026;-80
2022/03/29 02:03:14;;;;;;;64.30;37.42;;;;;;;-146.64;100.00;118402.03;5010312;28;20097;-79
2022/03/29 02:05:39;;;;;;;70.15;38.97;;;;;;;-146.64;100.00;118402.03;5003958;28;20049;-80
2022/03/29 02:08:04;;;;;;;64.80;37.53;;;;;;;-146.64;100.00;118402.03;5014717;28;20037;-79
2022/03/29 02:10:30;;;;;;;63.58;39.78;;;;;;;-146.64;100.00;118402.03;5017716;28;20017;-80
2022/03/29 02:12:56;;;;;;;63.67;39.88;;;;;;;-146.64;100.00;118402.03;5015247;28;20036;-80
2022/03/29 02:15:21;;;;;;;69.95;40.35;;;;;;;-146.64;100.00;118402.03;5013403;28;20634;-79
2022/03/29 02:17:50;;;;;;;62.00;38.50;;;;;;;-146.64;100.00;118402.03;4997466;28;20034;-80
2022/03/29 02:20:17;;;;;;;65.35;39.17;;;;;;;-146.64;100.00;118402.03;5020216;28;20025;-80
2022/03/29 02:22:42;;;;;;;68.05;39.22;;;;;;;-146.64;100.00;118402.03;4978558;28;20164;-80
2022/03/29 02:25:10;;;;;;;65.35;38.47;;;;;;;-146.64;100.00;118402.03;5003837;28;20065;-80
2022/03/29 02:27:41;;;;;;;69.53;39.45;;;;;;;-146.64;100.00;118402.03;5013956;28;20040;-80
2022/03/29 02:30:09;;;;;;;67.07;40.55;;;;;;;-146.64;100.00;118402.03;5006316;28;20048;-80
2022/03/29 02:32:34;;;;;;;68.40;39.47;;;;;;;-146.64;100.00;118402.03;5012307;28;20022;-80
2022/03/29 02:35:00;;;;;;;64.13;40.22;;;;;;;-146.64;100.00;118402.03;5004818;28;20029;-80
2022/03/29 02:37:25;;;;;;;73.88;39.60;;;;;;;-146.64;100.00;118402.03;5025072;28;20028;-80
2022/03/29 02:39:51;;;;;;;62.17;39.17;;;;;;;-146.64;100.00;118402.03;5016839;28;20032;-80
2022/03/29 02:42:16;;;;;;;68.88;39.80;;;;;;;-146.64;100.00;118402.03;5020078;28;20049;-79
2022/03/29 02:44:41;;;;;;;72.25;41.42;;;;;;;-146.64;100.00;118402.03;5024799;28;20385;-79
2022/03/29 02:47:07;;;;;;;69.07;39.83;;;;;;;-146.64;100.00;118402.03;5027337;28;20056;-80
2022/03/29 02:49:32;;;;;;;67.22;40.92;;;;;;;-146.64;100.00;118402.03;5024191;28;20029;-80
2022/03/29 02:51:58;;;;;;;67.88;41.08;;;;;;;-146.64;100.00;118402.03;5010413;28;20034;-79
2022/03/29 02:54:23;;;;;;;70.85;40.50;;;;;;;-146.64;100.00;118402.03;5025031;28;20040;-80
2022/03/29 02:56:48;;;;;;;74.25;41.58;;;;;;;-146.64;100.00;118402.03;5003265;28;20038;-80
2022/03/29 02:59:14;;;;;;;71.38;40.97;;;;;;;-146.64;100.00;118402.03;5021214;28;20030;-80
2022/03/29 03:01:40;;;;;;;72.13;40.92;;;;;;;-146.64;100.00;118402.03;5010430;28;20480;-80
2022/03/29 03:04:05;;;;;;;71.05;40.90;;;;;;;-146.64;100.00;118402.03;5007604;28;20038;-79
2022/03/29 03:06:31;;;;;;;77.93;40.47;;;;;;;-146.64;100.00;118402.03;5005598;28;20085;-80
2022/03/29 03:08:56;;;;;;;71.20;41.38;;;;;;;-146.64;100.00;118402.03;5022514;28;20033;-80
2022/03/29 03:11:22;;;;;;;71.80;40.95;;;;;;;-146.64;100.00;118402.03;5007766;28;20041;-79
2022/03/29 03:13:48;;;;;;;68.20;40.55;;;;;;;-146.64;100.00;118402.03;5024450;28;20034;-80
2022/03/29 03:16:13;;;;;;;67.68;40.08;;;;;;;-146.64;100.00;118402.03;5005015;28;20037;-80
2022/03/29 03:18:38;;;;;;;66.70;41.33;;;;;;;-146.64;100.00;118402.03;5005104;28;20069;-80
2022/03/29 03:21:05;;;;;;;71.22;42.25;;;;;;;-146.64;100.00;118402.03;5003994;28;20030;-79
2022/03/29 03:23:30;;;;;;;77.70;42.47;;;;;;;-146.64;100.00;118402.03;5008764;28;20042;-79
2022/03/29 03:25:56;;;;;;;73.45;40.60;;;;;;;-146.64;100.00;118402.03;5024771;28;20099;-79
2022/03/29 03:28:21;;;;;;;71.30;40.30;;;;;;;-146.64;100.00;118402.03;5021655;28;20030;-79
2022/03/29 03:30:49;;;;;;;67.05;41.30;;;;;;;-146.64;100.00;118402.03;5020871;28;20036;-80
2022/03/29 03:33:15;;;;;;;70.35;41.60;;;;;;;-146.64;100.00;118402.03;5004900;28;20080;-80
2022/03/29 03:35:40;;;;;;;70.30;41.67;;;;;;;-146.64;100.00;118402.03;5019185;28;20125;-80
2022/03/29 03:38:07;;;;;;;68.55;39.67;;;;;;;-146.64;100.00;118402.03;5005063;28;20112;-80
2022/03/29 03:40:32;;;;;;;70.30;40.72;;;;;;;-146.64;100.00;118402.03;4988029;28;20033;-81
2022/03/29 03:42:58;;;;;;;70.97;41.05;;;;;;;-146.64;100.00;118402.03;5019814;28;20038;-80
2022/03/29 03:45:23;;;;;;;70.65;42.13;;;;;;;-146.64;100.00;118402.03;5004485;28;20037;-80
2022/03/29 03:47:49;;;;;;;75.25;43.13;;;;;;;-146.64;100.00;118402.03;5026455;28;20105;-79
2022/03/29 03:50:15;;;;;;;80.95;42.25;;;;;;;-146.64;100.00;118402.03;5024150;28;20463;-79
2022/03/29 03:52:40;;;;;;;71.70;42.58;;;;;;;-146.64;100.00;118402.03;5016587;28;20041;-80
2022/03/29 03:55:08;;;;;;;74.35;43.75;;;;;;;-146.64;100.00;118402.03;5003850;28;20045;-80
2022/03/29 03:57:33;;;;;;;76.18;42.63;;;;;;;-146.64;100.00;118402.03;4995856;28;20065;-79
2022/03/29 04:00:00;;;;;;;72.07;42.97;;;;;;;-146.64;100.00;118402.03;5039889;28;20037;-80
2022/03/29 04:02:26;;;;;;;78.25;43.33;;;;;;;-146.64;100.00;118402.03;5020091;28;20033;-79
2022/03/29 04:04:51;;;;;;;74.70;42.42;;;;;;;-146.64;100.00;118402.03;5034384;28;20026;-79
2022/03/29 04:07:17;;;;;;;75.50;41.55;;;;;;;-146.64;100.00;118402.03;5013267;28;20080;-80
2022/03/29 04:09:42;;;;;;;75.00;41.75;;;;;;;-146.64;100.00;118402.03;5022092;28;20084;-79
2022/03/29 04:12:08;;;;;;;74.72;40.33;;;;;;;-146.64;100.00;118402.03;5003522;28;20094;-80
2022/03/29 04:14:33;;;;;;;69.15;41.38;;;;;;;-146.64;100.00;118402.03;5004886;28;20128;-79
2022/03/29 04:17:00;;;;;;;79.18;41.58;;;;;;;-146.64;100.00;118402.03;5008957;28;20490;-80
2022/03/29 04:19:26;;;;;;;78.63;40.58;;;;;;;-146.64;100.00;118402.03;5022770;28;20084;-79
2022/03/29 04:21:53;;;;;;;80.00;42.97;;;;;;;-146.64;100.00;118402.03;5009005;28;20452;-80
2022/03/29 04:24:18;;;;;;;75.05;40.83;;;;;;;-146.64;100.00;118402.03;5004521;28;20072;-80
2022/03/29 04:26:47;;;;;;;84.57;42.03;;;;;;;-146.64;100.00;118402.03;5018275;28;20080;-80
2022/03/29 04:29:12;;;;;;;79.22;41.42;;;;;;;-146.64;100.00;118402.03;5003123;28;20033;-79
2022/03/29 04:31:38;;;;;;;92.90;42.13;;;;;;;-146.64;100.00;118402.03;5001694;28;20375;-80
2022/03/29 04:34:05;;;;;;;90.15;41.08;;;;;;;-146.64;100.00;118402.03;5020478;28;20489;-80
2022/03/29 04:36:30;;;;;;;76.60;42.17;;;;;;;-146.64;100.00;118402.03;5018792;28;20018;-80
2022/03/29 04:39:00;;;;;;;74.13;40.40;;;;;;;-146.64;100.00;118402.03;5002814;28;20033;-80
2022/03/29 04:41:25;;;;;;;95.30;42.30;;;;;;;-146.64;100.00;118402.03;4987411;28;20038;-80
2022/03/29 04:43:50;;;;;;;74.47;42.97;;;;;;;-146.64;100.00;118402.03;5023302;28;20037;-79
2022/03/29 04:46:17;;;;;;;74.38;40.22;;;;;;;-146.64;100.00;118402.03;5001708;28;20040;-80
2022/03/29 04:48:42;;;;;;;76.45;41.97;;;;;;;-146.64;100.00;118402.03;5031475;28;20026;-80
2022/03/29 04:51:07;;;;;;;98.15;40.72;;;;;;;-146.64;100.00;118402.03;5002160;28;20033;-80
2022/03/29 04:53:33;;;;;;;86.03;39.92;;;;;;;-146.64;100.00;118402.03;5019876;28;20033;-80
2022/03/29 04:55:58;;;;;;;72.57;38.85;;;;;;;-146.64;100.00;118402.03;5031369;28;20025;-80
2022/03/29 04:58:24;;;;;;;74.47;39.40;;;;;;;-146.64;100.00;118402.03;5006629;28;20037;-80
2022/03/29 05:00:50;;;;;;;70.10;39.88;;;;;;;-146.64;100.00;118402.03;5000771;28;20438;-79
2022/03/29 05:03:16;;;;;;;69.50;40.72;;;;;;;-146.64;100.00;118402.03;5018063;28;20119;-79
2022/03/29 05:05:45;;;;;;;75.65;41.60;;;;;;;-146.64;100.00;118402.03;5000220;28;20051;-79
2022/03/29 05:08:10;;;;;;;108.30;39.90;;;;;;;-146.64;100.00;118402.03;4999640;28;20045;-79
2022/03/29 05:10:36;;;;;;;80.18;42.55;;;;;;;-146.64;100.00;118402.03;4986289;28;20030;-80
2022/03/29 05:13:01;;;;;;;74.32;41.15;;;;;;;-146.64;100.00;118402.03;5001357;28;20074;-80
2022/03/29 05:15:32;;;;;;;69.57;40.15;;;;;;;-146.64;100.00;118402.03;5003585;28;20025;-79
2022/03/29 05:17:57;;;;;;;74.45;39.00;;;;;;;-146.64;100.00;118402.03;5024605;28;20022;-80
2022/03/29 05:20:24;;;;;;;78.95;37.83;;;;;;;-146.64;100.00;118402.03;5002910;28;20488;-79
2022/03/29 05:22:51;;;;;;;76.32;36.30;;;;;;;-146.64;100.00;118402.03;4993753;28;20101;-80
2022/03/29 05:25:18;;;;;;;62.08;35.55;;;;;;;-146.64;100.00;118402.03;5011922;28;20033;-80
2022/03/29 05:27:43;;;;;;;;;;;;;;;-146.64;100.00;118402.03;5005064;28;20037;-81
2022/03/29 05:30:11;;;;;;;73.40;37.50;;;;;;;-146.64;100.00;118402.03;5022387;28;20300;-80
2022/03/29 05:32:36;;;;;;;74.15;34.72;;;;;;;-146.64;100.00;118402.03;5016969;28;20095;-80
2022/03/29 05:35:03;;;;;;;67.90;36.45;;;;;;;-146.64;100.00;118402.03;5018653;28;20021;-80
2022/03/29 05:37:29;;;;;;;67.03;35.75;;;;;;;-146.64;100.00;118402.03;4997725;28;20077;-80
2022/03/29 05:39:55;;;;;;;67.55;36.78;;;;;;;-146.64;100.00;118402.03;4999501;28;20068;-80
2022/03/29 05:42:21;;;;;;;71.47;35.70;;;;;;;-146.64;100.00;118402.03;4997294;28;20034;-79
2022/03/29 05:44:46;;;;;;;70.90;34.35;;;;;;;-146.64;100.00;118402.03;5018761;28;22261;-80
2022/03/29 05:49:57;;;;;;;108.03;38.55;;;;;;;-146.64;100.00;118402.03;5010638;28;20546;-80
2022/03/29 05:52:22;;;;;;;;;;;;;;;-146.64;100.00;118402.03;4999621;28;20022;-80
2022/03/29 05:54:48;;;;;;;95.95;36.08;;;;;;;-146.64;100.00;118402.03;5017108;28;19924;-80
2022/03/29 05:57:14;;;;;;;88.78;36.72;;;;;;;-146.64;100.00;118402.03;5016538;28;20087;-80
2022/03/29 05:59:39;;;;;;;110.45;37.25;;;;;;;-146.64;100.00;118402.03;5017174;28;20030;-80
2022/03/29 06:02:05;;;;;;;102.13;36.63;;;;;;;-146.64;100.00;118402.03;5016651;28;20098;-80
2022/03/29 06:04:36;;;;;;;76.70;35.67;;;;;;;-146.64;100.00;118402.03;4998214;28;20483;-80
2022/03/29 06:07:04;;;;;;;79.47;34.10;;;;;;;-146.64;100.00;118402.03;5015975;28;20087;-80
2022/03/29 06:09:29;;;;;;;77.85;34.30;;;;;;;-146.64;100.00;118402.03;4996625;28;20425;-79
2022/03/29 06:11:55;;;;;;;78.78;35.58;;;;;;;-146.64;100.00;118402.03;5017919;28;20108;-80
2022/03/29 06:14:20;;;;;;;92.45;36.63;;;;;;;-146.64;100.00;118402.03;5000140;28;20038;-80
2022/03/29 06:16:45;;;;;;;60.72;33.10;;;;;;;-146.64;100.00;118402.03;5012317;28;20037;-80
2022/03/29 06:19:11;;;;;;;81.10;34.38;;;;;;;-146.64;100.00;118402.03;5013853;28;20040;-80
2022/03/29 06:21:37;;;;;;;77.43;33.60;;;;;;;-146.64;100.00;118402.03;5011198;28;20050;-80
2022/03/29 06:24:04;;;;;;;59.97;32.07;;;;;;;-146.64;100.00;118402.03;5012947;28;20041;-80
2022/03/29 06:26:30;;;;;;;71.32;33.40;;;;;;;-146.64;100.00;118402.03;5027594;28;20385;-80
2022/03/29 06:28:56;;;;;;;90.60;32.75;;;;;;;-146.64;100.00;118402.03;4997973;28;20057;-80
2022/03/29 06:31:21;;;;;;;60.55;32.25;;;;;;;-146.64;100.00;118402.03;4999293;28;20117;-80
2022/03/29 06:33:47;;;;;;;88.00;32.22;;;;;;;-146.64;100.00;118402.03;5014487;28;20030;-80
2022/03/29 06:36:13;;;;;;;61.13;33.22;;;;;;;-146.64;100.00;118402.03;5001152;28;20025;-80
2022/03/29 06:38:38;;;;;;;57.80;31.10;;;;;;;-146.64;100.00;118402.03;4998442;28;20471;-81
2022/03/29 06:41:03;;;;;;;59.38;31.63;;;;;;;-146.64;100.00;118402.03;5019187;28;20034;-80
2022/03/29 06:43:29;;;;;;;81.50;32.47;;;;;;;-146.64;100.00;118402.03;5015520;28;20099;-81
2022/03/29 06:45:55;;;;;;;62.00;33.72;;;;;;;-146.64;100.00;118402.03;5000502;28;20105;-81
2022/03/29 06:48:20;;;;;;;73.75;34.08;;;;;;;-146.64;100.00;118402.03;5014307;28;20021;-81
2022/03/29 06:50:46;;;;;;;67.60;33.85;;;;;;;-146.64;100.00;118402.03;5010464;28;20056;-81
2022/03/29 06:53:11;;;;;;;59.22;30.92;;;;;;;-146.64;100.00;118402.03;4998551;28;20046;-81
2022/03/29 06:55:37;;;;;;;84.50;30.70;;;;;;;-146.64;100.00;118402.03;4998375;28;20021;-81
2022/03/29 06:58:03;;;;;;;61.63;30.38;;;;;;;-146.64;100.00;118402.03;4983328;28;20105;-80
2022/03/29 07:00:28;;;;;;;109.40;28.33;;;;;;;-146.64;100.00;118402.03;5015038;28;20037;-80
2022/03/29 07:02:54;;;;;;;139.25;29.77;;;;;;;-146.64;100.00;118402.03;4999944;28;20022;-81
2022/03/29 07:05:19;;;;;;;59.33;30.48;;;;;;;-146.64;100.00;118402.03;5017754;28;20089;-81
2022/03/29 07:07:45;;;;;;;105.38;31.42;;;;;;;-146.64;100.00;118402.03;5001512;28;20033;-81
2022/03/29 07:12:59;;;;;;;76.13;29.05;;;;;;;-146.64;100.00;118402.03;5016627;28;20060;-81
2022/03/29 07:15:24;;;;;;;50.95;30.70;;;;;;;-146.64;100.00;118402.03;5000325;28;20033;-81
2022/03/29 07:17:50;;;;;;;85.38;30.00;;;;;;;-146.64;100.00;118402.03;5026072;28;20080;-81
2022/03/29 07:20:16;;;;;;;76.00;28.58;;;;;;;-146.64;100.00;118402.03;5014943;28;20061;-80
2022/03/29 07:22:42;;;;;;;52.95;28.75;;;;;;;-146.64;100.00;118402.03;4998402;28;20114;-81
2022/03/29 07:25:08;;;;;;;73.47;27.48;;;;;;;-146.64;100.00;118402.03;4996614;28;20053;-81
2022/03/29 07:27:33;;;;;;;58.08;26.55;;;;;;;-146.64;100.00;118402.03;4984866;28;20370;-80
2022/03/29 07:30:00;;;;;;;44.08;27.77;;;;;;;-146.64;100.00;118402.03;5000485;28;20097;-79
2022/03/29 07:32:27;;;;;;;59.95;27.58;;;;;;;-146.64;100.00;118402.03;5015397;28;20568;-80
2022/03/29 07:34:54;;;;;;;48.85;27.13;;;;;;;-146.64;100.00;118402.03;5000399;28;20057;-80
2022/03/29 07:37:20;;;;;;;54.08;27.38;;;;;;;-146.64;100.00;118402.03;5017099;28;20072;-81
2022/03/29 07:39:46;;;;;;;44.88;27.67;;;;;;;-146.64;100.00;118402.03;5002582;28;20045;-80
2022/03/29 07:42:12;;;;;;;60.88;27.25;;;;;;;-146.64;100.00;118402.03;5012078;28;20129;-80
2022/03/29 07:44:37;;;;;;;53.15;28.17;;;;;;;-146.64;100.00;118402.03;5012730;28;20029;-79
2022/03/29 07:47:03;;;;;;;56.00;28.08;;;;;;;-146.64;100.00;118402.03;5014222;28;20030;-79
2022/03/29 07:49:29;;;;;;;56.95;25.90;;;;;;;-146.64;100.00;118402.03;4995438;28;20083;-80
2022/03/29 07:51:55;;;;;;;48.17;26.05;;;;;;;-146.64;100.00;118402.03;4994592;28;20474;-79
2022/03/29 07:54:21;;;;;;;48.78;28.48;;;;;;;-146.64;100.00;118402.03;4994842;28;20481;-80
2022/03/29 07:56:46;;;;;;;57.60;26.48;;;;;;;-146.64;100.00;118402.03;5014148;28;20034;-79
2022/03/29 07:59:12;;;;;;;43.50;26.63;;;;;;;-146.64;100.00;118402.03;5011959;28;20061;-80
2022/03/29 08:01:37;;;;;;;42.33;25.35;;;;;;;-146.64;100.00;118402.03;4996844;28;20091;-79
2022/03/29 08:04:04;;;;;;;50.50;25.13;;;;;;;-146.64;100.00;118402.03;5013550;28;20037;-79
2022/03/29 08:06:30;;;;;;;44.03;27.88;;;;;;;-146.64;100.00;118402.03;4995247;28;20038;-78
2022/03/29 08:08:56;;;;;;;62.07;27.33;;;;;;;-146.64;100.00;118399.94;5012266;28;20447;-77
2022/03/29 08:11:22;;;;;;;45.42;29.02;;;;;;;-146.64;100.00;118399.94;4993550;28;20284;-78
2022/03/29 08:13:47;;;;;;;47.87;27.30;;;;;;;-146.64;100.00;118399.94;4994617;28;20026;-78
2022/03/29 08:16:13;;;;;;;46.85;28.10;;;;;;;-146.64;100.00;118132.78;5012000;28;20040;-79
2022/03/29 08:18:39;;;;;;;49.13;28.00;;;;;;;-146.64;100.00;117865.63;5012115;28;20026;-78
2022/03/29 08:21:47;;;;;;;52.15;28.63;;;;;;;-146.64;100.00;117598.47;5013533;28;20033;-79
2022/03/29 08:23:50;;;;;;;51.40;28.48;;;;;;;-146.64;100.00;117331.34;5011960;28;20134;-78
2022/03/29 08:26:16;;;;;;;48.80;28.92;;;;;;;-146.64;100.00;117598.47;5013464;28;20065;-78
2022/03/29 08:28:41;;;;;;;47.38;29.70;;;;;;;-146.64;100.00;117598.47;4995087;28;20034;-78
2022/03/29 08:31:06;;;;;;;50.45;30.88;;;;;;;-146.64;100.00;116797.16;5012585;28;20057;-79
2022/03/29 08:33:32;;;;;;;49.40;29.13;;;;;;;-146.64;100.00;116530.09;4993500;28;20437;-78
2022/03/29 08:35:57;;;;;;;58.92;30.58;;;;;;;-146.64;100.00;115729.00;5002004;28;20868;-79
2022/03/29 08:38:22;;;;;;;54.30;30.90;;;;;;;-146.64;100.00;114928.06;5002950;28;20110;-79
2022/03/29 08:40:48;;;;;;;55.53;29.52;;;;;;;-146.64;100.00;114394.19;4993635;28;20037;-79
2022/03/29 08:43:15;;;;;;;52.60;30.42;;;;;;;-146.64;100.00;113593.50;5005587;28;20118;-78
2022/03/29 08:45:40;;;;;;;;;;;;;;;-146.64;100.00;113059.81;4996647;28;20041;-79
2022/03/29 08:48:06;;;;;;;49.65;28.90;;;;;;;-146.64;100.00;111992.59;4993235;28;19917;-79
2022/03/29 08:50:37;;;;;;;51.22;30.13;;;;;;;-146.64;100.00;111725.84;5009483;28;20450;-78
2022/03/29 08:53:04;;;;;;;52.58;30.75;;;;;;;-146.64;100.00;111725.84;4991621;28;20116;-78
2022/03/29 08:55:30;;;;;;;;;;;;;;;-146.64;100.00;111459.13;5011992;28;20080;-79
2022/03/29 08:57:56;;;;;;;53.05;29.70;;;;;;;-146.64;100.00;111192.41;5011952;28;19928;-79
2022/03/29 09:00:23;;;;;;;53.20;30.45;;;;;;;-146.64;100.00;110925.69;5012700;28;20042;-78
2022/03/29 09:02:49;;;;;;;50.60;30.88;;;;;;;-146.64;100.00;110925.69;5012579;28;20189;-79
2022/03/29 09:05:27;;;;;;;52.28;30.95;;;;;;;-146.64;100.00;110659.00;4996784;28;20021;-78
2022/03/29 09:07:54;;;;;;;50.72;30.30;;;;;;;-146.64;100.00;110392.34;4990594;28;20093;-79
2022/03/29 09:10:21;;;;;;;49.17;29.40;;;;;;;-146.64;100.00;110392.34;5014321;28;20021;-80
2022/03/29 09:12:47;;;;;;;50.00;29.38;;;;;;;-146.64;100.00;110392.34;5015305;28;20033;-80
2022/03/29 09:15:13;;;;;;;56.72;32.00;;;;;;;-146.64;100.00;110925.69;5015962;28;20045;-80
2022/03/29 09:17:44;;;;;;;57.03;31.58;;;;;;;-146.64;100.00;111192.41;5014623;28;20026;-80
2022/03/29 09:20:16;;;;;;;54.33;32.92;;;;;;;-146.64;100.00;110392.34;5013468;28;20048;-80
2022/03/29 09:22:59;;;;;;;56.05;32.83;;;;;;;-146.64;100.00;110125.69;4997915;28;20584;-80
2022/03/29 09:25:34;;;;;;;54.63;32.38;;;;;;;-146.64;100.00;108792.72;4998301;28;20080;-80
2022/03/29 09:28:02;;;;;;;59.22;33.50;;;;;;;-146.64;100.00;108259.63;5011036;28;20362;-80
2022/03/29 09:30:41;;;;;;;53.72;32.95;;;;;;;-146.64;100.00;109059.28;5012860;28;20072;-81
2022/03/29 09:33:10;;;;;;;54.53;31.05;;;;;;;-146.64;100.00;109325.84;5017467;28;20377;-80
2022/03/29 09:35:59;;;;;;;59.22;32.75;;;;;;;-146.64;100.00;109325.84;5019142;28;20500;-80
2022/03/29 09:38:34;;;;;;;53.13;31.58;;;;;;;-146.64;100.00;109325.84;5019095;28;20022;-80
2022/03/29 09:41:00;;;;;;;56.83;33.42;;;;;;;-146.64;100.00;108526.16;4999044;28;20036;-81
2022/03/29 09:43:27;;;;;;;52.72;33.15;;;;;;;-146.64;100.00;107726.63;5007943;28;20037;-81
2022/03/29 09:45:55;;;;;;;;;;;;;;;-146.64;100.00;107460.16;5015490;28;20083;-81
2022/03/29 09:48:39;;;;;;;55.60;32.10;;;;;;;-146.64;100.00;106660.84;4999312;28;19921;-80
2022/03/29 09:51:08;;;;;;;57.58;33.88;;;;;;;-146.64;100.00;106128.03;4999761;28;20034;-81
2022/03/29 09:53:33;;;;;;;64.25;34.70;;;;;;;-146.64;100.00;107460.16;5018969;28;20077;-81
2022/03/29 09:56:00;;;;;;;62.45;34.58;;;;;;;-146.64;100.00;108792.72;5018648;28;20120;-80
2022/03/29 09:58:25;;;;;;;64.05;33.47;;;;;;;-146.64;100.00;109325.84;5000281;28;20025;-81
2022/03/29 10:00:50;;;;;;;59.30;33.35;;;;;;;-146.64;100.00;109059.28;5004076;28;20484;-80
2022/03/29 10:03:17;;;;;;;54.47;34.10;;;;;;;-146.64;100.00;107460.16;5021247;28;20033;-80
2022/03/29 10:05:42;;;;;;;56.53;32.03;;;;;;;-146.64;100.00;105861.69;5024901;28;20037;-80
2022/03/29 10:10:54;;;;;;;59.50;32.72;;;;;;;-146.64;100.00;107993.13;5010902;28;20033;-80
2022/03/29 10:13:23;;;;;;;52.83;32.83;;;;;;;-146.64;100.00;108792.72;4996923;28;20034;-80
2022/03/29 10:15:49;;;;;;;51.22;31.90;;;;;;;-146.64;100.00;108792.72;4996718;28;20038;-80
2022/03/29 10:18:15;;;;;;;53.95;32.70;;;;;;;-146.64;100.00;109059.28;4994128;28;20046;-80
2022/03/29 10:20:41;;;;;;;58.97;32.70;;;;;;;-146.64;100.00;110659.00;5014239;28;20041;-81
2022/03/29 10:23:06;;;;;;;59.83;34.17;;;;;;;-146.64;100.00;111459.13;5011819;28;20042;-80
2022/03/29 10:25:32;;;;;;;59.05;34.92;;;;;;;-146.64;100.00;111992.59;4996347;28;20485;-81
2022/03/29 10:27:59;;;;;;;58.95;34.33;;;;;;;-146.64;100.00;111725.84;4997271;28;20030;-80
2022/03/29 10:30:31;;;;;;;57.22;32.67;;;;;;;-146.64;100.00;111192.41;4996969;28;20485;-81
2022/03/29 10:33:17;;;;;;;62.75;33.88;;;;;;;-146.64;100.00;110659.00;5017213;28;20038;-81
2022/03/29 10:36:08;;;;;;;67.13;34.90;;;;;;;-146.64;100.00;111992.59;4990047;28;20120;-80
2022/03/29 10:38:48;;;;;;;61.72;33.70;;;;;;;-146.64;100.00;111725.84;5015643;28;20033;-81
2022/03/29 10:41:26;;;;;;;59.45;35.08;;;;;;;-146.64;100.00;111992.59;5014325;28;20033;-80
2022/03/29 10:43:52;;;;;;;;;;;;;;;-146.64;100.00;111992.59;5017319;28;20072;-80
2022/03/29 10:46:32;;;;;;;61.65;34.20;;;;;;;-146.64;100.00;111725.84;5017362;28;19921;-79
2022/03/29 10:49:20;;;;;;;63.65;35.05;;;;;;;-146.64;100.00;110659.00;4996436;28;20036;-80
2022/03/29 10:51:49;;;;;;;64.63;33.10;;;;;;;-146.64;100.00;108792.72;5017494;28;20029;-80
2022/03/29 10:54:38;;;;;;;54.75;32.60;;;;;;;-146.64;100.00;107193.69;5016496;28;20169;-80
2022/03/29 10:57:18;;;;;;;57.88;33.97;;;;;;;-146.64;100.00;106394.44;5009576;28;20730;-80
2022/03/29 10:59:49;;;;;;;66.78;35.83;;;;;;;-146.64;100.00;105861.69;5013629;28;20032;-80